sensor_id;sensor_type;location;lat;lon;timestamp;temperature;humidity
21193;DHT22;10754;51.106;7.164;2022-09-13T00:01:04;21.30;1.00
21193;DHT22;10754;51.106;7.164;2022-09-13T00:03:29;21.40;1.00
21193;DHT22;10754;51.106;7.164;2022-09-13T00:05:55;21.40;1.00
21193;DHT22;10754;51.106;7.164;2022-09-13T00:08:21;21.40;1.00
21193;DHT22;10754;51.106;7.164;2022-09-13T00:10:47;21.30;1.00
21193;DHT22;10754;51.106;7.164;2022-09-13T00:13:13;21.30;1.00
21193;DHT22;10754;51.106;7.164;2022-09-13T00:15:44;21.30;1.00
21193;DHT22;10754;51.106;7.164;2022-09-13T00:18:10;21.30;1.00
21193;DHT22;10754;51.106;7.164;2022-09-13T00:20:36;21.30;1.00
21193;DHT22;10754;51.106;7.164;2022-09-13T00:23:02;21.30;1.00
21193;DHT22;10754;51.106;7.164;2022-09-13T00:25:28;21.30;1.00
21193;DHT22;10754;51.106;7.164;2022-09-13T00:27:53;21.20;1.00
21193;DHT22;10754;51.106;7.164;2022-09-13T00:30:19;21.10;1.00
21193;DHT22;10754;51.106;7.164;2022-09-13T00:32:44;21.20;1.00
21193;DHT22;10754;51.106;7.164;2022-09-13T00:35:10;21.10;1.00
21193;DHT22;10754;51.106;7.164;2022-09-13T00:37:35;21.10;1.00
21193;DHT22;10754;51.106;7.164;2022-09-13T00:40:02;21.10;1.00
21193;DHT22;10754;51.106;7.164;2022-09-13T00:42:29;21.00;1.00
21193;DHT22;10754;51.106;7.164;2022-09-13T00:45:00;21.00;1.00
21193;DHT22;10754;51.106;7.164;2022-09-13T00:50:16;21.00;1.00
21193;DHT22;10754;51.106;7.164;2022-09-13T00:52:45;21.00;1.00
21193;DHT22;10754;51.106;7.164;2022-09-13T00:55:26;21.00;1.00
21193;DHT22;10754;51.106;7.164;2022-09-13T00:57:53;21.10;1.00
21193;DHT22;10754;51.106;7.164;2022-09-13T01:00:22;21.00;1.00
21193;DHT22;10754;51.106;7.164;2022-09-13T01:02:54;21.00;1.00
21193;DHT22;10754;51.106;7.164;2022-09-13T01:05:24;21.00;1.00
21193;DHT22;10754;51.106;7.164;2022-09-13T01:07:53;20.90;1.00
21193;DHT22;10754;51.106;7.164;2022-09-13T01:10:19;20.90;1.00
21193;DHT22;10754;51.106;7.164;2022-09-13T01:12:58;21.00;1.00
21193;DHT22;10754;51.106;7.164;2022-09-13T01:15:25;21.00;1.00
21193;DHT22;10754;51.106;7.164;2022-09-13T01:17:51;20.90;1.00
21193;DHT22;10754;51.106;7.164;2022-09-13T01:20:18;20.90;1.00
21193;DHT22;10754;51.106;7.164;2022-09-13T01:23:11;20.80;1.00
21193;DHT22;10754;51.106;7.164;2022-09-13T01:31:21;20.90;1.00
21193;DHT22;10754;51.106;7.164;2022-09-13T01:36:44;20.80;1.00
21193;DHT22;10754;51.106;7.164;2022-09-13T01:47:37;20.80;1.00
21193;DHT22;10754;51.106;7.164;2022-09-13T01:50:14;20.80;1.00
21193;DHT22;10754;51.106;7.164;2022-09-13T01:52:55;20.80;1.00
21193;DHT22;10754;51.106;7.164;2022-09-13T02:00:38;20.60;1.00
21193;DHT22;10754;51.106;7.164;2022-09-13T02:03:27;20.70;1.00
21193;DHT22;10754;51.106;7.164;2022-09-13T02:06:00;20.70;1.00
21193;DHT22;10754;51.106;7.164;2022-09-13T02:08:55;20.60;1.00
21193;DHT22;10754;51.106;7.164;2022-09-13T02:11:22;20.70;1.00
21193;DHT22;10754;51.106;7.164;2022-09-13T02:13:58;20.60;1.00
21193;DHT22;10754;51.106;7.164;2022-09-13T02:16:33;20.60;1.00
21193;DHT22;10754;51.106;7.164;2022-09-13T02:19:13;20.60;1.00
21193;DHT22;10754;51.106;7.164;2022-09-13T02:21:43;20.60;1.00
21193;DHT22;10754;51.106;7.164;2022-09-13T02:24:15;20.70;1.00
21193;DHT22;10754;51.106;7.164;2022-09-13T02:26:42;20.70;1.00
21193;DHT22;10754;51.106;7.164;2022-09-13T02:29:13;20.60;1.00
21193;DHT22;10754;51.106;7.164;2022-09-13T02:34:33;20.60;1.00
21193;DHT22;10754;51.106;7.164;2022-09-13T02:37:00;20.60;1.00
21193;DHT22;10754;51.106;7.164;2022-09-13T02:39:28;20.60;1.00
21193;DHT22;10754;51.106;7.164;2022-09-13T02:42:36;20.60;1.00
21193;DHT22;10754;51.106;7.164;2022-09-13T02:44:55;20.70;1.00
21193;DHT22;10754;51.106;7.164;2022-09-13T02:47:27;20.70;1.00
21193;DHT22;10754;51.106;7.164;2022-09-13T02:50:30;20.70;1.00
21193;DHT22;10754;51.106;7.164;2022-09-13T02:58:32;20.70;1.00
21193;DHT22;10754;51.106;7.164;2022-09-13T03:00:59;20.70;1.00
21193;DHT22;10754;51.106;7.164;2022-09-13T03:03:25;20.70;1.00
21193;DHT22;10754;51.106;7.164;2022-09-13T03:05:52;20.80;1.00
21193;DHT22;10754;51.106;7.164;2022-09-13T03:08:17;20.80;1.00
21193;DHT22;10754;51.106;7.164;2022-09-13T03:11:06;20.80;1.00
21193;DHT22;10754;51.106;7.164;2022-09-13T03:28:32;20.80;1.00
21193;DHT22;10754;51.106;7.164;2022-09-13T03:31:08;20.80;1.00
21193;DHT22;10754;51.106;7.164;2022-09-13T03:33:56;20.80;1.00
21193;DHT22;10754;51.106;7.164;2022-09-13T03:36:44;20.80;1.00
21193;DHT22;10754;51.106;7.164;2022-09-13T03:39:39;20.90;1.00
21193;DHT22;10754;51.106;7.164;2022-09-13T03:42:15;21.00;1.00
21193;DHT22;10754;51.106;7.164;2022-09-13T03:44:44;21.00;1.00
21193;DHT22;10754;51.106;7.164;2022-09-13T03:47:12;20.90;1.00
21193;DHT22;10754;51.106;7.164;2022-09-13T03:49:39;20.90;1.00
21193;DHT22;10754;51.106;7.164;2022-09-13T03:52:05;21.00;1.00
21193;DHT22;10754;51.106;7.164;2022-09-13T03:54:35;21.00;1.00
21193;DHT22;10754;51.106;7.164;2022-09-13T03:57:13;21.00;1.00
21193;DHT22;10754;51.106;7.164;2022-09-13T03:59:45;21.00;1.00
21193;DHT22;10754;51.106;7.164;2022-09-13T04:02:11;21.00;1.00
21193;DHT22;10754;51.106;7.164;2022-09-13T04:04:38;21.00;1.00
21193;DHT22;10754;51.106;7.164;2022-09-13T04:07:04;21.00;1.00
21193;DHT22;10754;51.106;7.164;2022-09-13T04:09:30;21.00;1.00
21193;DHT22;10754;51.106;7.164;2022-09-13T04:11:56;20.90;1.00
21193;DHT22;10754;51.106;7.164;2022-09-13T04:14:22;20.90;1.00
21193;DHT22;10754;51.106;7.164;2022-09-13T04:16:53;21.00;1.00
21193;DHT22;10754;51.106;7.164;2022-09-13T04:19:20;21.00;1.00
21193;DHT22;10754;51.106;7.164;2022-09-13T04:21:50;20.90;1.00
21193;DHT22;10754;51.106;7.164;2022-09-13T04:24:17;20.90;1.00
21193;DHT22;10754;51.106;7.164;2022-09-13T04:26:43;20.90;1.00
21193;DHT22;10754;51.106;7.164;2022-09-13T04:29:09;20.90;1.00
21193;DHT22;10754;51.106;7.164;2022-09-13T04:31:36;20.90;1.00
21193;DHT22;10754;51.106;7.164;2022-09-13T04:34:01;21.00;1.00
21193;DHT22;10754;51.106;7.164;2022-09-13T04:36:27;21.00;1.00
21193;DHT22;10754;51.106;7.164;2022-09-13T04:38:53;21.00;1.00
21193;DHT22;10754;51.106;7.164;2022-09-13T04:41:18;20.90;1.00
21193;DHT22;10754;51.106;7.164;2022-09-13T04:43:48;20.90;1.00
21193;DHT22;10754;51.106;7.164;2022-09-13T04:46:14;20.90;1.00
21193;DHT22;10754;51.106;7.164;2022-09-13T04:48:40;20.90;1.00
21193;DHT22;10754;51.106;7.164;2022-09-13T04:51:05;20.90;1.00
21193;DHT22;10754;51.106;7.164;2022-09-13T04:53:31;20.90;1.00
21193;DHT22;10754;51.106;7.164;2022-09-13T04:56:03;20.90;1.00
21193;DHT22;10754;51.106;7.164;2022-09-13T04:58:30;20.90;1.00
21193;DHT22;10754;51.106;7.164;2022-09-13T05:01:03;20.90;1.00
21193;DHT22;10754;51.106;7.164;2022-09-13T05:03:33;21.00;1.00
21193;DHT22;10754;51.106;7.164;2022-09-13T05:06:07;21.00;1.00
21193;DHT22;10754;51.106;7.164;2022-09-13T05:08:34;21.00;1.00
21193;DHT22;10754;51.106;7.164;2022-09-13T05:11:00;20.90;1.00
21193;DHT22;10754;51.106;7.164;2022-09-13T05:13:26;20.90;1.00
21193;DHT22;10754;51.106;7.164;2022-09-13T05:15:59;20.90;1.00
21193;DHT22;10754;51.106;7.164;2022-09-13T05:18:30;20.90;1.00
21193;DHT22;10754;51.106;7.164;2022-09-13T05:20:57;20.90;1.00
21193;DHT22;10754;51.106;7.164;2022-09-13T05:23:23;20.90;1.00
21193;DHT22;10754;51.106;7.164;2022-09-13T05:28:23;21.00;1.00
21193;DHT22;10754;51.106;7.164;2022-09-13T05:31:04;21.00;1.00
21193;DHT22;10754;51.106;7.164;2022-09-13T05:33:32;21.00;1.00
21193;DHT22;10754;51.106;7.164;2022-09-13T05:35:58;20.90;1.00
21193;DHT22;10754;51.106;7.164;2022-09-13T05:38:24;21.00;1.00
21193;DHT22;10754;51.106;7.164;2022-09-13T05:40:57;21.00;1.00
21193;DHT22;10754;51.106;7.164;2022-09-13T05:43:24;20.90;1.00
21193;DHT22;10754;51.106;7.164;2022-09-13T05:45:50;20.90;1.00
21193;DHT22;10754;51.106;7.164;2022-09-13T05:48:16;20.90;1.00
21193;DHT22;10754;51.106;7.164;2022-09-13T05:50:41;20.90;1.00
21193;DHT22;10754;51.106;7.164;2022-09-13T05:53:07;20.90;1.00
21193;DHT22;10754;51.106;7.164;2022-09-13T05:55:33;21.00;1.00
21193;DHT22;10754;51.106;7.164;2022-09-13T05:58:02;20.90;1.00
21193;DHT22;10754;51.106;7.164;2022-09-13T06:00:27;20.90;1.00
21193;DHT22;10754;51.106;7.164;2022-09-13T06:02:54;20.90;1.00
21193;DHT22;10754;51.106;7.164;2022-09-13T06:05:20;21.00;1.00
21193;DHT22;10754;51.106;7.164;2022-09-13T06:07:45;20.90;1.00
21193;DHT22;10754;51.106;7.164;2022-09-13T06:10:11;20.90;1.00
21193;DHT22;10754;51.106;7.164;2022-09-13T06:12:36;20.80;1.00
21193;DHT22;10754;51.106;7.164;2022-09-13T06:15:03;20.90;1.00
21193;DHT22;10754;51.106;7.164;2022-09-13T06:17:28;21.00;1.00
21193;DHT22;10754;51.106;7.164;2022-09-13T06:19:54;21.10;1.00
21193;DHT22;10754;51.106;7.164;2022-09-13T06:22:21;21.00;1.00
21193;DHT22;10754;51.106;7.164;2022-09-13T06:24:46;21.00;1.00
21193;DHT22;10754;51.106;7.164;2022-09-13T06:27:12;21.00;1.00
21193;DHT22;10754;51.106;7.164;2022-09-13T06:29:37;21.00;1.00
21193;DHT22;10754;51.106;7.164;2022-09-13T06:32:03;21.10;1.00
21193;DHT22;10754;51.106;7.164;2022-09-13T06:34:29;21.10;1.00
21193;DHT22;10754;51.106;7.164;2022-09-13T06:36:54;21.20;1.00
21193;DHT22;10754;51.106;7.164;2022-09-13T06:39:20;21.20;1.00
21193;DHT22;10754;51.106;7.164;2022-09-13T06:41:45;21.30;1.00
21193;DHT22;10754;51.106;7.164;2022-09-13T06:44:11;21.30;1.00
21193;DHT22;10754;51.106;7.164;2022-09-13T06:46:37;21.30;1.00
21193;DHT22;10754;51.106;7.164;2022-09-13T06:49:05;21.30;1.00
21193;DHT22;10754;51.106;7.164;2022-09-13T06:51:31;21.30;1.00
21193;DHT22;10754;51.106;7.164;2022-09-13T06:53:57;21.40;1.00
21193;DHT22;10754;51.106;7.164;2022-09-13T06:56:31;21.40;1.00
21193;DHT22;10754;51.106;7.164;2022-09-13T06:58:59;21.40;1.00
21193;DHT22;10754;51.106;7.164;2022-09-13T07:01:30;21.40;1.00
21193;DHT22;10754;51.106;7.164;2022-09-13T07:06:28;21.50;1.00
21193;DHT22;10754;51.106;7.164;2022-09-13T07:08:55;21.60;1.00
21193;DHT22;10754;51.106;7.164;2022-09-13T07:11:23;21.60;1.00
21193;DHT22;10754;51.106;7.164;2022-09-13T07:13:53;21.60;1.00
21193;DHT22;10754;51.106;7.164;2022-09-13T07:16:20;21.60;1.00
21193;DHT22;10754;51.106;7.164;2022-09-13T07:19:00;21.50;1.00
21193;DHT22;10754;51.106;7.164;2022-09-13T07:21:27;21.60;1.00
21193;DHT22;10754;51.106;7.164;2022-09-13T07:23:53;21.60;1.00
21193;DHT22;10754;51.106;7.164;2022-09-13T07:26:19;21.60;1.00
21193;DHT22;10754;51.106;7.164;2022-09-13T07:28:47;21.60;1.00
21193;DHT22;10754;51.106;7.164;2022-09-13T07:31:18;21.70;1.00
21193;DHT22;10754;51.106;7.164;2022-09-13T07:33:51;21.70;1.00
21193;DHT22;10754;51.106;7.164;2022-09-13T07:36:17;21.80;1.00
21193;DHT22;10754;51.106;7.164;2022-09-13T07:38:43;21.70;1.00
21193;DHT22;10754;51.106;7.164;2022-09-13T07:41:14;21.80;1.00
21193;DHT22;10754;51.106;7.164;2022-09-13T07:43:39;21.70;1.00
21193;DHT22;10754;51.106;7.164;2022-09-13T07:46:07;21.80;1.00
21193;DHT22;10754;51.106;7.164;2022-09-13T07:48:35;21.80;1.00
21193;DHT22;10754;51.106;7.164;2022-09-13T07:51:06;21.90;1.00
21193;DHT22;10754;51.106;7.164;2022-09-13T07:53:34;21.90;1.00
21193;DHT22;10754;51.106;7.164;2022-09-13T07:56:19;22.00;1.00
21193;DHT22;10754;51.106;7.164;2022-09-13T07:58:46;22.00;1.00
21193;DHT22;10754;51.106;7.164;2022-09-13T08:03:49;22.10;1.00
21193;DHT22;10754;51.106;7.164;2022-09-13T08:06:15;22.20;1.00
21193;DHT22;10754;51.106;7.164;2022-09-13T08:08:40;22.30;1.00
21193;DHT22;10754;51.106;7.164;2022-09-13T08:11:06;22.20;1.00
21193;DHT22;10754;51.106;7.164;2022-09-13T08:13:32;22.20;1.00
21193;DHT22;10754;51.106;7.164;2022-09-13T08:16:04;22.30;1.00
21193;DHT22;10754;51.106;7.164;2022-09-13T08:18:30;22.20;1.00
21193;DHT22;10754;51.106;7.164;2022-09-13T08:20:57;22.30;1.00
21193;DHT22;10754;51.106;7.164;2022-09-13T08:23:23;22.50;1.00
21193;DHT22;10754;51.106;7.164;2022-09-13T08:25:49;22.40;1.00
21193;DHT22;10754;51.106;7.164;2022-09-13T08:28:17;22.40;1.00
21193;DHT22;10754;51.106;7.164;2022-09-13T08:30:43;22.40;1.00
21193;DHT22;10754;51.106;7.164;2022-09-13T08:33:09;22.40;1.00
21193;DHT22;10754;51.106;7.164;2022-09-13T08:35:36;22.50;1.00
21193;DHT22;10754;51.106;7.164;2022-09-13T08:38:03;22.50;1.00
21193;DHT22;10754;51.106;7.164;2022-09-13T08:40:46;22.60;1.00
21193;DHT22;10754;51.106;7.164;2022-09-13T08:43:30;22.60;1.00
21193;DHT22;10754;51.106;7.164;2022-09-13T08:46:05;22.60;1.00
21193;DHT22;10754;51.106;7.164;2022-09-13T08:48:35;22.70;1.00
21193;DHT22;10754;51.106;7.164;2022-09-13T08:51:05;22.70;1.00
21193;DHT22;10754;51.106;7.164;2022-09-13T08:53:44;22.70;1.00
21193;DHT22;10754;51.106;7.164;2022-09-13T08:56:19;22.80;1.00
21193;DHT22;10754;51.106;7.164;2022-09-13T09:01:37;22.90;1.00
21193;DHT22;10754;51.106;7.164;2022-09-13T09:04:14;23.00;1.00
21193;DHT22;10754;51.106;7.164;2022-09-13T09:06:45;23.20;1.40
21193;DHT22;10754;51.106;7.164;2022-09-13T09:09:17;23.20;1.00
21193;DHT22;10754;51.106;7.164;2022-09-13T09:11:52;23.20;1.00
21193;DHT22;10754;51.106;7.164;2022-09-13T09:14:34;23.10;99.90
21193;DHT22;10754;51.106;7.164;2022-09-13T09:17:05;23.20;1.00
21193;DHT22;10754;51.106;7.164;2022-09-13T09:19:37;23.30;1.00
21193;DHT22;10754;51.106;7.164;2022-09-13T09:22:16;23.40;1.00
21193;DHT22;10754;51.106;7.164;2022-09-13T09:24:53;23.50;99.90
21193;DHT22;10754;51.106;7.164;2022-09-13T09:27:20;23.50;99.90
21193;DHT22;10754;51.106;7.164;2022-09-13T09:29:55;23.50;1.00
21193;DHT22;10754;51.106;7.164;2022-09-13T09:35:29;23.60;99.90
21193;DHT22;10754;51.106;7.164;2022-09-13T09:40:48;23.70;99.90
21193;DHT22;10754;51.106;7.164;2022-09-13T09:43:19;23.70;99.90
21193;DHT22;10754;51.106;7.164;2022-09-13T09:45:46;23.80;99.90
21193;DHT22;10754;51.106;7.164;2022-09-13T09:48:17;23.80;99.90
21193;DHT22;10754;51.106;7.164;2022-09-13T09:50:49;23.80;99.90
21193;DHT22;10754;51.106;7.164;2022-09-13T09:53:38;23.90;99.90
21193;DHT22;10754;51.106;7.164;2022-09-13T09:56:25;24.00;99.90
21193;DHT22;10754;51.106;7.164;2022-09-13T09:58:52;24.00;99.90
21193;DHT22;10754;51.106;7.164;2022-09-13T10:01:31;24.10;99.90
21193;DHT22;10754;51.106;7.164;2022-09-13T10:06:38;24.60;99.90
21193;DHT22;10754;51.106;7.164;2022-09-13T10:09:13;24.80;99.90
21193;DHT22;10754;51.106;7.164;2022-09-13T10:11:44;24.90;99.90
21193;DHT22;10754;51.106;7.164;2022-09-13T10:14:35;25.10;99.90
21193;DHT22;10754;51.106;7.164;2022-09-13T10:19:57;25.50;99.90
21193;DHT22;10754;51.106;7.164;2022-09-13T10:22:25;25.60;99.90
21193;DHT22;10754;51.106;7.164;2022-09-13T10:24:51;25.70;99.90
21193;DHT22;10754;51.106;7.164;2022-09-13T10:27:28;25.90;99.90
21193;DHT22;10754;51.106;7.164;2022-09-13T10:29:57;26.20;99.90
21193;DHT22;10754;51.106;7.164;2022-09-13T10:32:25;26.40;99.90
21193;DHT22;10754;51.106;7.164;2022-09-13T10:34:51;26.60;99.90
21193;DHT22;10754;51.106;7.164;2022-09-13T10:37:24;26.80;99.90
21193;DHT22;10754;51.106;7.164;2022-09-13T10:40:00;26.80;99.90
21193;DHT22;10754;51.106;7.164;2022-09-13T10:42:27;26.90;99.90
21193;DHT22;10754;51.106;7.164;2022-09-13T10:45:00;26.90;99.90
21193;DHT22;10754;51.106;7.164;2022-09-13T10:47:33;27.20;99.90
21193;DHT22;10754;51.106;7.164;2022-09-13T10:50:24;27.40;99.90
21193;DHT22;10754;51.106;7.164;2022-09-13T10:52:51;27.70;99.90
21193;DHT22;10754;51.106;7.164;2022-09-13T10:57:44;28.00;99.90
21193;DHT22;10754;51.106;7.164;2022-09-13T11:00:21;28.00;99.90
21193;DHT22;10754;51.106;7.164;2022-09-13T11:11:37;28.40;99.90
21193;DHT22;10754;51.106;7.164;2022-09-13T11:19:39;28.20;99.90
21193;DHT22;10754;51.106;7.164;2022-09-13T11:25:34;28.30;99.90
21193;DHT22;10754;51.106;7.164;2022-09-13T11:39:31;29.00;99.90
21193;DHT22;10754;51.106;7.164;2022-09-13T11:45:24;29.40;99.90
21193;DHT22;10754;51.106;7.164;2022-09-13T11:48:19;29.90;99.90
21193;DHT22;10754;51.106;7.164;2022-09-13T11:51:20;30.30;99.90
21193;DHT22;10754;51.106;7.164;2022-09-13T11:56:50;30.80;99.90
21193;DHT22;10754;51.106;7.164;2022-09-13T11:59:48;31.00;99.90
21193;DHT22;10754;51.106;7.164;2022-09-13T12:02:19;31.40;99.90
21193;DHT22;10754;51.106;7.164;2022-09-13T12:04:59;31.90;99.90
21193;DHT22;10754;51.106;7.164;2022-09-13T12:07:38;31.90;99.90
21193;DHT22;10754;51.106;7.164;2022-09-13T12:10:27;32.30;99.90
21193;DHT22;10754;51.106;7.164;2022-09-13T12:12:54;32.80;99.90
21193;DHT22;10754;51.106;7.164;2022-09-13T12:15:42;33.10;99.90
21193;DHT22;10754;51.106;7.164;2022-09-13T12:18:25;33.80;99.90
21193;DHT22;10754;51.106;7.164;2022-09-13T12:21:03;34.20;99.90
21193;DHT22;10754;51.106;7.164;2022-09-13T12:23:50;35.20;99.90
21193;DHT22;10754;51.106;7.164;2022-09-13T12:26:19;36.10;99.90
21193;DHT22;10754;51.106;7.164;2022-09-13T12:28:52;36.30;99.90
21193;DHT22;10754;51.106;7.164;2022-09-13T12:31:25;35.90;99.90
21193;DHT22;10754;51.106;7.164;2022-09-13T12:33:51;34.90;99.90
21193;DHT22;10754;51.106;7.164;2022-09-13T12:36:36;33.80;99.90
21193;DHT22;10754;51.106;7.164;2022-09-13T12:44:56;32.90;99.90
21193;DHT22;10754;51.106;7.164;2022-09-13T12:50:18;32.80;99.90
21193;DHT22;10754;51.106;7.164;2022-09-13T13:01:43;31.90;99.90
21193;DHT22;10754;51.106;7.164;2022-09-13T13:04:17;31.60;99.90
21193;DHT22;10754;51.106;7.164;2022-09-13T13:06:58;31.50;99.90
21193;DHT22;10754;51.106;7.164;2022-09-13T13:11:58;31.20;99.90
21193;DHT22;10754;51.106;7.164;2022-09-13T13:17:37;31.50;99.90
21193;DHT22;10754;51.106;7.164;2022-09-13T13:20:38;31.30;99.90
21193;DHT22;10754;51.106;7.164;2022-09-13T13:23:31;31.10;99.90
21193;DHT22;10754;51.106;7.164;2022-09-13T13:36:29;29.90;99.90
21193;DHT22;10754;51.106;7.164;2022-09-13T13:38:58;29.80;99.90
21193;DHT22;10754;51.106;7.164;2022-09-13T13:46:42;29.70;99.90
21193;DHT22;10754;51.106;7.164;2022-09-13T13:57:31;29.30;99.90
21193;DHT22;10754;51.106;7.164;2022-09-13T14:08:34;28.90;99.90
21193;DHT22;10754;51.106;7.164;2022-09-13T14:11:26;28.80;99.90
21193;DHT22;10754;51.106;7.164;2022-09-13T14:19:41;28.60;99.90
21193;DHT22;10754;51.106;7.164;2022-09-13T14:22:27;28.50;99.90
21193;DHT22;10754;51.106;7.164;2022-09-13T14:24:55;28.50;99.90
21193;DHT22;10754;51.106;7.164;2022-09-13T14:27:28;28.30;99.90
21193;DHT22;10754;51.106;7.164;2022-09-13T14:29:58;28.30;99.90
21193;DHT22;10754;51.106;7.164;2022-09-13T14:32:40;28.30;99.90
21193;DHT22;10754;51.106;7.164;2022-09-13T14:35:22;28.20;99.90
21193;DHT22;10754;51.106;7.164;2022-09-13T14:37:48;28.20;99.90
21193;DHT22;10754;51.106;7.164;2022-09-13T14:40:18;28.00;99.90
21193;DHT22;10754;51.106;7.164;2022-09-13T14:42:48;28.00;99.90
21193;DHT22;10754;51.106;7.164;2022-09-13T14:45:26;28.00;99.90
21193;DHT22;10754;51.106;7.164;2022-09-13T14:48:07;28.00;99.90
21193;DHT22;10754;51.106;7.164;2022-09-13T14:50:39;28.00;99.90
21193;DHT22;10754;51.106;7.164;2022-09-13T14:53:11;27.90;99.90
21193;DHT22;10754;51.106;7.164;2022-09-13T14:55:42;27.80;99.90
21193;DHT22;10754;51.106;7.164;2022-09-13T14:58:16;27.80;99.90
21193;DHT22;10754;51.106;7.164;2022-09-13T15:01:05;27.70;99.90
21193;DHT22;10754;51.106;7.164;2022-09-13T15:03:32;27.70;99.90
21193;DHT22;10754;51.106;7.164;2022-09-13T15:05:59;27.60;99.90
21193;DHT22;10754;51.106;7.164;2022-09-13T15:10:58;27.60;99.90
21193;DHT22;10754;51.106;7.164;2022-09-13T15:13:25;27.50;99.90
21193;DHT22;10754;51.106;7.164;2022-09-13T15:15:51;27.50;99.90
21193;DHT22;10754;51.106;7.164;2022-09-13T15:20:55;27.40;99.90
21193;DHT22;10754;51.106;7.164;2022-09-13T15:25:55;27.30;99.90
21193;DHT22;10754;51.106;7.164;2022-09-13T15:28:24;27.20;99.90
21193;DHT22;10754;51.106;7.164;2022-09-13T15:30:50;27.20;99.90
21193;DHT22;10754;51.106;7.164;2022-09-13T15:33:29;27.10;99.90
21193;DHT22;10754;51.106;7.164;2022-09-13T15:39:02;27.00;99.90
21193;DHT22;10754;51.106;7.164;2022-09-13T15:41:36;26.90;99.90
21193;DHT22;10754;51.106;7.164;2022-09-13T15:44:04;26.80;99.90
21193;DHT22;10754;51.106;7.164;2022-09-13T15:46:31;26.80;99.90
21193;DHT22;10754;51.106;7.164;2022-09-13T15:49:02;26.80;99.90
21193;DHT22;10754;51.106;7.164;2022-09-13T15:51:29;26.70;99.90
21193;DHT22;10754;51.106;7.164;2022-09-13T15:53:55;26.70;99.90
21193;DHT22;10754;51.106;7.164;2022-09-13T15:56:30;26.70;99.90
21193;DHT22;10754;51.106;7.164;2022-09-13T15:58:56;26.70;99.90
21193;DHT22;10754;51.106;7.164;2022-09-13T16:01:22;26.60;99.90
21193;DHT22;10754;51.106;7.164;2022-09-13T16:03:47;26.60;99.90
21193;DHT22;10754;51.106;7.164;2022-09-13T16:06:13;26.50;99.90
21193;DHT22;10754;51.106;7.164;2022-09-13T16:08:38;26.50;99.90
21193;DHT22;10754;51.106;7.164;2022-09-13T16:11:05;26.50;99.90
21193;DHT22;10754;51.106;7.164;2022-09-13T16:13:31;26.50;99.90
21193;DHT22;10754;51.106;7.164;2022-09-13T16:15:57;26.50;99.90
21193;DHT22;10754;51.106;7.164;2022-09-13T16:18:23;26.40;99.90
21193;DHT22;10754;51.106;7.164;2022-09-13T16:20:49;26.40;99.90
21193;DHT22;10754;51.106;7.164;2022-09-13T16:23:15;26.40;99.90
21193;DHT22;10754;51.106;7.164;2022-09-13T16:25:41;26.40;99.90
21193;DHT22;10754;51.106;7.164;2022-09-13T16:28:07;26.30;99.90
21193;DHT22;10754;51.106;7.164;2022-09-13T16:30:33;26.30;99.90
21193;DHT22;10754;51.106;7.164;2022-09-13T16:32:59;26.30;99.90
21193;DHT22;10754;51.106;7.164;2022-09-13T16:35:29;26.20;99.90
21193;DHT22;10754;51.106;7.164;2022-09-13T16:37:55;26.20;99.90
21193;DHT22;10754;51.106;7.164;2022-09-13T16:40:21;26.20;99.90
21193;DHT22;10754;51.106;7.164;2022-09-13T16:42:47;26.10;99.90
21193;DHT22;10754;51.106;7.164;2022-09-13T16:45:13;26.10;99.90
21193;DHT22;10754;51.106;7.164;2022-09-13T16:47:39;26.10;99.90
21193;DHT22;10754;51.106;7.164;2022-09-13T16:50:06;26.00;99.90
21193;DHT22;10754;51.106;7.164;2022-09-13T16:52:32;26.00;99.90
21193;DHT22;10754;51.106;7.164;2022-09-13T16:54:58;26.00;99.90
21193;DHT22;10754;51.106;7.164;2022-09-13T16:57:24;26.00;99.90
21193;DHT22;10754;51.106;7.164;2022-09-13T16:59:51;26.00;99.90
21193;DHT22;10754;51.106;7.164;2022-09-13T17:02:20;25.90;99.90
21193;DHT22;10754;51.106;7.164;2022-09-13T17:04:45;25.90;99.90
21193;DHT22;10754;51.106;7.164;2022-09-13T17:07:12;25.80;99.90
21193;DHT22;10754;51.106;7.164;2022-09-13T17:09:38;25.80;99.90
21193;DHT22;10754;51.106;7.164;2022-09-13T17:12:05;25.80;99.90
21193;DHT22;10754;51.106;7.164;2022-09-13T17:14:31;25.70;99.90
21193;DHT22;10754;51.106;7.164;2022-09-13T17:16:57;25.70;99.90
21193;DHT22;10754;51.106;7.164;2022-09-13T17:19:26;25.70;99.90
21193;DHT22;10754;51.106;7.164;2022-09-13T17:21:54;25.70;99.90
21193;DHT22;10754;51.106;7.164;2022-09-13T17:24:24;25.70;99.90
21193;DHT22;10754;51.106;7.164;2022-09-13T17:26:51;25.70;99.90
21193;DHT22;10754;51.106;7.164;2022-09-13T17:29:16;25.70;99.90
21193;DHT22;10754;51.106;7.164;2022-09-13T17:31:42;25.70;99.90
21193;DHT22;10754;51.106;7.164;2022-09-13T17:34:09;25.60;99.90
21193;DHT22;10754;51.106;7.164;2022-09-13T17:36:35;25.60;99.90
21193;DHT22;10754;51.106;7.164;2022-09-13T17:39:00;25.50;99.90
21193;DHT22;10754;51.106;7.164;2022-09-13T17:41:26;25.50;99.90
21193;DHT22;10754;51.106;7.164;2022-09-13T17:43:52;25.50;99.90
21193;DHT22;10754;51.106;7.164;2022-09-13T17:46:20;25.50;99.90
21193;DHT22;10754;51.106;7.164;2022-09-13T17:48:47;25.50;99.90
21193;DHT22;10754;51.106;7.164;2022-09-13T17:51:15;25.40;99.90
21193;DHT22;10754;51.106;7.164;2022-09-13T17:53:47;25.40;99.90
21193;DHT22;10754;51.106;7.164;2022-09-13T17:56:21;25.40;1.00
21193;DHT22;10754;51.106;7.164;2022-09-13T17:58:47;25.40;1.40
21193;DHT22;10754;51.106;7.164;2022-09-13T18:01:13;25.30;1.00
21193;DHT22;10754;51.106;7.164;2022-09-13T18:03:39;25.30;1.00
21193;DHT22;10754;51.106;7.164;2022-09-13T18:06:06;25.30;1.00
21193;DHT22;10754;51.106;7.164;2022-09-13T18:08:34;25.30;1.00
21193;DHT22;10754;51.106;7.164;2022-09-13T18:11:10;25.20;1.00
21193;DHT22;10754;51.106;7.164;2022-09-13T18:13:37;25.20;1.00
21193;DHT22;10754;51.106;7.164;2022-09-13T18:16:08;25.10;1.00
21193;DHT22;10754;51.106;7.164;2022-09-13T18:18:35;25.20;1.00
21193;DHT22;10754;51.106;7.164;2022-09-13T18:21:00;25.10;1.00
21193;DHT22;10754;51.106;7.164;2022-09-13T18:23:27;25.10;1.00
21193;DHT22;10754;51.106;7.164;2022-09-13T18:26:00;25.00;1.00
21193;DHT22;10754;51.106;7.164;2022-09-13T18:28:27;25.00;1.00
21193;DHT22;10754;51.106;7.164;2022-09-13T18:30:55;25.00;1.00
21193;DHT22;10754;51.106;7.164;2022-09-13T18:33:21;25.00;1.00
21193;DHT22;10754;51.106;7.164;2022-09-13T18:38:27;25.00;1.00
21193;DHT22;10754;51.106;7.164;2022-09-13T18:41:05;24.90;1.00
21193;DHT22;10754;51.106;7.164;2022-09-13T18:43:31;25.00;1.00
21193;DHT22;10754;51.106;7.164;2022-09-13T18:46:01;24.80;1.00
21193;DHT22;10754;51.106;7.164;2022-09-13T18:48:34;24.80;1.00
21193;DHT22;10754;51.106;7.164;2022-09-13T18:51:01;24.70;1.00
21193;DHT22;10754;51.106;7.164;2022-09-13T18:53:27;24.60;1.00
21193;DHT22;10754;51.106;7.164;2022-09-13T18:55:53;24.60;1.00
21193;DHT22;10754;51.106;7.164;2022-09-13T18:58:21;24.60;1.00
21193;DHT22;10754;51.106;7.164;2022-09-13T19:00:46;24.60;1.00
21193;DHT22;10754;51.106;7.164;2022-09-13T19:03:12;24.60;1.00